CYPQ

Peterborough Municipal Airport

Airport
ICAO code
CYPQ
IATA Code
YPQ
Summary
ICAO Region
NAM
ICAO Territory
Location

Peterborough, Ontario,

Serving
Peterborough
Elevation
628 ft
Coordinates
44° 13' 48" N , 78° 21' 48" W
KCC
Metar
Observation
CYPQ 091900Z AUTO 04006KT 010V090 9SM CLR 01/M05 A3041 RMK SLP308
Station
Peterborough Airport
Date/Time
2022-12-09 19:00:00
Wind direction
40°
Wind speed
06 kts
Lowest cloud amount
n/a
Temperature
1°C
Dew point
-5°C
Humidity
64%
Weather condition
n/a

Description

International airport serving Peterborough, located 3 nm south-southwest of the city of Peterborough, Ontario, Canada.

Climatology

Humid continental climate (Köppen climate classification Dfa) - characterized by four seasons: cold, windy, snowy winters, mild springs, hot, humid summers, and crisp and relatively short autumns. Precipitation reaches its lowest in January and February and peaks in summer and latter half of spring.

Runways

Designator Length Width Surface Rops
14/32 543 30 GRS No/No
9/27 2134 30 ASP Yes/Yes

Airport map

Aerial View

SKYbrary Partners:

Safety knowledge contributed by: